createdAt,value
2018-03-02T00:02:09.930Z,12.27
2018-03-02T00:04:38.308Z,6.55
2018-03-02T00:07:06.652Z,15.05
2018-03-02T00:09:35.304Z,13.25
2018-03-02T00:12:04.424Z,9.68
2018-03-02T00:14:32.742Z,7.37
2018-03-02T00:17:01.469Z,8.15
2018-03-02T00:19:29.799Z,10.70
2018-03-02T00:21:58.121Z,9.63
2018-03-02T00:24:27.270Z,12.40
2018-03-02T00:26:55.594Z,13.98
2018-03-02T00:29:23.942Z,9.35
2018-03-02T00:31:52.325Z,8.88
2018-03-02T00:34:20.643Z,9.40
2018-03-02T00:36:48.947Z,12.73
2018-03-02T00:39:17.803Z,11.18
2018-03-02T00:41:46.143Z,6.87
2018-03-02T00:44:14.472Z,6.20
2018-03-02T00:46:42.805Z,7.25
2018-03-02T00:49:11.152Z,13.52
2018-03-02T00:51:39.476Z,9.30
2018-03-02T00:54:07.840Z,8.40
2018-03-02T00:56:36.150Z,10.95
2018-03-02T00:59:05.220Z,14.98
2018-03-02T01:01:33.725Z,13.13
2018-03-02T01:04:02.069Z,10.50
2018-03-02T01:06:31.176Z,14.15
2018-03-02T01:08:59.521Z,7.68
2018-03-02T01:11:27.875Z,7.05
2018-03-02T01:13:56.189Z,12.02
2018-03-02T01:16:24.518Z,14.43
2018-03-02T01:18:52.872Z,12.88
2018-03-02T01:21:21.196Z,12.90
2018-03-02T01:23:49.751Z,16.98
2018-03-02T01:26:18.101Z,10.52
2018-03-02T01:28:46.436Z,9.02
2018-03-02T01:31:14.802Z,13.93
2018-03-02T01:33:43.922Z,10.48
2018-03-02T01:36:12.249Z,12.52
2018-03-02T01:38:40.614Z,9.63
2018-03-02T01:41:08.933Z,14.25
2018-03-02T01:43:38.013Z,10.75
2018-03-02T01:46:06.452Z,13.93
2018-03-02T01:48:34.844Z,9.43
2018-03-02T01:51:03.150Z,13.52
2018-03-02T01:53:31.490Z,15.30
2018-03-02T01:55:59.801Z,11.40
2018-03-02T01:58:28.109Z,16.27
2018-03-02T02:00:56.443Z,18.65
2018-03-02T02:03:24.816Z,12.40
2018-03-02T02:05:53.155Z,16.05
2018-03-02T02:08:21.990Z,12.88
2018-03-02T02:10:50.350Z,13.50
2018-03-02T02:13:18.656Z,24.48
2018-03-02T02:15:47.008Z,13.38
2018-03-02T02:18:15.520Z,12.57
2018-03-02T02:20:43.849Z,12.20
2018-03-02T02:23:12.229Z,22.73
2018-03-02T02:25:40.533Z,13.98
2018-03-02T02:28:08.857Z,15.93
2018-03-02T02:30:38.262Z,18.52
2018-03-02T02:33:07.354Z,9.50
2018-03-02T02:35:36.428Z,12.98
2018-03-02T02:38:04.967Z,15.35
2018-03-02T02:40:33.322Z,21.52
2018-03-02T02:43:01.658Z,15.10
2018-03-02T02:45:30.018Z,17.00
2018-03-02T02:47:58.365Z,16.55
2018-03-02T02:50:26.670Z,17.73
2018-03-02T02:52:55.249Z,20.77
2018-03-02T02:55:23.563Z,15.35
2018-03-02T02:57:51.869Z,20.10
2018-03-02T03:00:20.998Z,18.62
2018-03-02T03:02:49.325Z,18.05
2018-03-02T03:05:17.730Z,21.33
2018-03-02T03:07:46.082Z,16.15
2018-03-02T03:10:14.408Z,16.90
2018-03-02T03:12:42.740Z,39.47
2018-03-02T03:15:11.284Z,18.98
2018-03-02T03:17:39.590Z,17.17
2018-03-02T03:20:07.912Z,16.67
2018-03-02T03:22:36.252Z,19.35
2018-03-02T03:25:04.663Z,16.65
2018-03-02T03:27:33.018Z,26.17
2018-03-02T03:30:01.360Z,18.95
2018-03-02T03:32:29.704Z,17.90
2018-03-02T03:34:58.058Z,20.50
2018-03-02T03:37:26.560Z,22.83
2018-03-02T03:39:55.628Z,17.75
2018-03-02T03:42:23.953Z,17.23
2018-03-02T03:44:52.272Z,17.70
2018-03-02T03:47:20.592Z,25.12
2018-03-02T03:49:48.912Z,33.33
2018-03-02T03:52:17.257Z,20.42
2018-03-02T03:54:45.569Z,22.35
2018-03-02T03:57:13.912Z,24.40
2018-03-02T03:59:42.849Z,24.80
2018-03-02T04:02:11.959Z,24.48
2018-03-02T04:04:40.298Z,22.00
2018-03-02T04:07:08.674Z,30.83
2018-03-02T04:09:37.008Z,15.15
2018-03-02T04:12:06.094Z,29.63
2018-03-02T04:14:34.422Z,28.08
2018-03-02T04:17:02.748Z,26.77
2018-03-02T04:19:31.088Z,22.75
2018-03-02T04:22:00.033Z,21.48
2018-03-02T04:24:29.141Z,25.17
2018-03-02T04:26:58.224Z,27.10
2018-03-02T04:29:27.351Z,23.15
2018-03-02T04:31:55.687Z,29.45
2018-03-02T04:34:23.997Z,19.77
2018-03-02T04:36:52.349Z,26.17
2018-03-02T04:39:20.681Z,15.77
2018-03-02T04:41:49.029Z,24.20
2018-03-02T04:44:17.545Z,22.62
2018-03-02T04:46:45.858Z,30.20
2018-03-02T04:49:14.194Z,25.73
2018-03-02T04:51:42.573Z,24.90
2018-03-02T04:54:10.892Z,21.65
2018-03-02T04:56:39.226Z,22.25
2018-03-02T04:59:07.558Z,30.48
2018-03-02T05:01:35.858Z,21.45
2018-03-02T05:04:04.227Z,26.50
2018-03-02T05:06:33.839Z,22.23
2018-03-02T05:09:02.937Z,22.55
2018-03-02T05:11:31.276Z,31.12
2018-03-02T05:13:59.621Z,30.02
2018-03-02T05:16:27.930Z,20.20
2018-03-02T05:18:56.253Z,16.83
2018-03-02T05:21:25.424Z,22.42
2018-03-02T05:23:53.753Z,25.58
2018-03-02T05:26:22.052Z,19.62
2018-03-02T05:28:51.068Z,25.52
2018-03-02T05:31:19.408Z,18.95
2018-03-02T05:33:47.738Z,22.65
2018-03-02T05:36:16.063Z,20.85
2018-03-02T05:38:44.368Z,25.17
2018-03-02T05:41:12.687Z,26.52
2018-03-02T05:43:42.178Z,20.73
2018-03-02T05:46:10.507Z,18.70
2018-03-02T05:48:38.808Z,23.38
2018-03-02T05:51:07.733Z,21.85
2018-03-02T05:53:36.057Z,19.48
2018-03-02T05:56:04.389Z,19.73
2018-03-02T05:58:33.506Z,26.77
2018-03-02T06:01:02.570Z,21.05
2018-03-02T06:03:45.595Z,16.48
2018-03-02T06:06:13.896Z,16.50
2018-03-02T06:08:42.996Z,25.98
2018-03-02T06:11:12.577Z,22.33
2018-03-02T06:13:40.916Z,28.35
2018-03-02T06:16:09.241Z,21.40
2018-03-02T06:18:37.570Z,35.63
2018-03-02T06:21:05.914Z,24.87
2018-03-02T06:23:34.231Z,21.60
2018-03-02T06:26:02.579Z,26.65
2018-03-02T06:28:30.904Z,24.85
2018-03-02T06:30:59.210Z,21.77
2018-03-02T06:33:28.842Z,26.73
2018-03-02T06:35:57.906Z,30.23
2018-03-02T06:38:26.239Z,21.95
2018-03-02T06:40:54.586Z,21.67
2018-03-02T06:43:23.681Z,26.77
2018-03-02T06:45:52.019Z,25.17
2018-03-02T06:48:20.358Z,25.37
2018-03-02T06:50:48.689Z,25.62
2018-03-02T06:53:17.006Z,19.55
2018-03-02T06:55:46.717Z,31.80
2018-03-02T06:58:15.041Z,23.55
2018-03-02T07:00:43.346Z,22.25
2018-03-02T07:03:11.685Z,29.05
2018-03-02T07:05:40.029Z,27.45
2018-03-02T07:08:08.370Z,29.50
2018-03-02T07:10:36.712Z,33.05
2018-03-02T07:13:05.048Z,35.15
2018-03-02T07:15:33.385Z,27.80
2018-03-02T07:18:01.976Z,29.63
2018-03-02T07:20:30.306Z,26.85
2018-03-02T07:22:58.617Z,33.80
2018-03-02T07:25:26.934Z,37.13
2018-03-02T07:27:55.236Z,41.55
2018-03-02T07:30:24.297Z,34.25
2018-03-02T07:32:52.644Z,35.40
2018-03-02T07:35:21.191Z,46.28
2018-03-02T07:37:49.668Z,31.48
2018-03-02T07:40:19.350Z,34.65
2018-03-02T07:42:48.063Z,35.40
2018-03-02T07:45:16.437Z,36.47
2018-03-02T07:47:45.624Z,31.65
2018-03-02T07:50:14.737Z,31.27
2018-03-02T07:52:43.062Z,31.25
2018-03-02T07:55:11.406Z,30.62
2018-03-02T07:57:39.772Z,36.45
2018-03-02T08:00:08.106Z,35.95
2018-03-02T08:02:36.725Z,36.58
2018-03-02T08:05:05.067Z,34.65
2018-03-02T08:07:33.393Z,48.90
2018-03-02T08:10:02.499Z,41.70
2018-03-02T08:12:31.566Z,34.35
2018-03-02T08:15:00.095Z,43.53
2018-03-02T08:17:28.458Z,39.55
2018-03-02T08:19:56.771Z,44.30
2018-03-02T08:22:25.102Z,36.00
2018-03-02T08:24:54.475Z,37.80
2018-03-02T08:27:22.810Z,34.72
2018-03-02T08:29:51.130Z,41.53
2018-03-02T08:32:19.486Z,44.80
2018-03-02T08:34:47.826Z,38.75
2018-03-02T08:37:16.898Z,39.55
2018-03-02T08:39:45.257Z,42.53
2018-03-02T08:42:13.559Z,43.95
2018-03-02T08:44:41.874Z,44.03
2018-03-02T08:47:10.615Z,52.15
2018-03-02T08:49:38.949Z,38.53
2018-03-02T08:52:07.280Z,43.97
2018-03-02T08:54:36.421Z,44.08
2018-03-02T08:57:04.748Z,47.03
2018-03-02T08:59:33.077Z,39.90
2018-03-02T09:02:01.427Z,39.97
2018-03-02T09:04:30.589Z,37.92
2018-03-02T09:06:59.159Z,42.92
2018-03-02T09:09:28.822Z,37.00
2018-03-02T09:11:57.144Z,50.85
2018-03-02T09:14:25.456Z,35.05
2018-03-02T09:16:53.782Z,35.60
2018-03-02T09:19:22.112Z,45.65
2018-03-02T09:21:50.444Z,41.03
2018-03-02T09:24:18.787Z,41.88
2018-03-02T09:26:47.874Z,35.25
2018-03-02T09:29:16.962Z,37.85
2018-03-02T09:31:46.585Z,43.13
2018-03-02T09:34:14.922Z,55.63
2018-03-02T09:36:43.242Z,38.10
2018-03-02T09:39:12.334Z,38.50
2018-03-02T09:41:40.695Z,33.57
2018-03-02T09:44:09.817Z,41.77
2018-03-02T09:49:12.754Z,36.07
2018-03-02T09:51:41.390Z,39.10
2018-03-02T09:54:09.717Z,39.43
2018-03-02T09:56:38.021Z,35.80
2018-03-02T09:59:06.363Z,37.10
2018-03-02T10:01:34.749Z,36.60
2018-03-02T10:04:03.094Z,32.10
2018-03-02T10:06:32.229Z,34.30
2018-03-02T10:09:00.567Z,31.80
2018-03-02T10:11:28.933Z,39.37
2018-03-02T10:13:57.554Z,37.17
2018-03-02T10:16:25.872Z,24.30
2018-03-02T10:18:54.982Z,25.30
2018-03-02T10:21:23.353Z,31.40
2018-03-02T10:23:51.652Z,29.60
2018-03-02T10:26:19.976Z,28.20
2018-03-02T10:28:48.357Z,31.17
2018-03-02T10:31:16.675Z,27.63
2018-03-02T10:33:45.026Z,30.73
2018-03-02T10:36:13.683Z,23.70
2018-03-02T10:38:42.048Z,28.20
2018-03-02T10:41:10.363Z,30.70
2018-03-02T10:43:39.036Z,32.57
2018-03-02T10:46:07.373Z,25.23
2018-03-02T10:48:36.468Z,31.60
2018-03-02T10:51:04.856Z,29.37
2018-03-02T10:53:33.950Z,24.43
2018-03-02T10:56:03.036Z,30.80
2018-03-02T10:58:31.836Z,32.53
2018-03-02T11:01:06.422Z,29.30
2018-03-02T11:03:34.757Z,24.87
2018-03-02T11:06:03.062Z,25.93
2018-03-02T11:08:31.374Z,25.77
2018-03-02T11:10:59.732Z,26.47
2018-03-02T11:13:28.093Z,28.87
2018-03-02T11:15:56.425Z,36.80
2018-03-02T11:18:24.883Z,30.73
2018-03-02T11:20:53.207Z,26.97
2018-03-02T11:23:22.318Z,32.00
2018-03-02T11:25:50.658Z,36.30
2018-03-02T11:28:18.954Z,29.97
2018-03-02T11:30:47.249Z,30.60
2018-03-02T11:33:15.597Z,35.67
2018-03-02T11:35:44.670Z,33.30
2018-03-02T11:38:12.975Z,31.30
2018-03-02T11:40:42.252Z,41.33
2018-03-02T11:43:10.542Z,33.73
2018-03-02T11:45:38.890Z,30.47
2018-03-02T11:48:07.234Z,27.20
2018-03-02T11:50:35.564Z,29.40
2018-03-02T11:53:03.868Z,34.37
2018-03-02T11:55:32.981Z,24.53
2018-03-02T11:58:01.333Z,36.27
2018-03-02T12:00:29.668Z,32.13
2018-03-02T12:02:58.302Z,28.80
2018-03-02T12:05:27.524Z,28.27
2018-03-02T12:07:55.888Z,29.23
2018-03-02T12:10:25.048Z,26.73
2018-03-02T12:12:53.409Z,32.33
2018-03-02T12:15:23.336Z,26.60
2018-03-02T12:17:51.677Z,27.50
2018-03-02T12:20:19.988Z,22.77
2018-03-02T12:22:48.367Z,26.07
2018-03-02T12:25:16.791Z,23.87
2018-03-02T12:27:45.903Z,24.70
2018-03-02T12:30:14.217Z,19.57
2018-03-02T12:32:42.601Z,21.80
2018-03-02T12:35:10.928Z,16.60
2018-03-02T12:37:40.047Z,22.50
2018-03-02T12:40:08.441Z,16.60
2018-03-02T12:42:36.770Z,24.23
2018-03-02T12:45:05.131Z,15.40
2018-03-02T12:47:33.703Z,27.70
2018-03-02T12:50:02.008Z,22.53
2018-03-02T12:52:30.344Z,17.80
2018-03-02T12:54:58.684Z,23.70
2018-03-02T12:57:27.001Z,25.33
2018-03-02T12:59:55.335Z,24.83
2018-03-02T13:02:23.671Z,30.50
2018-03-02T13:04:52.000Z,24.93
2018-03-02T13:07:20.317Z,25.33
2018-03-02T13:09:49.156Z,20.30
2018-03-02T13:12:17.512Z,29.40
2018-03-02T13:14:45.864Z,19.93
2018-03-02T13:17:14.243Z,23.47
2018-03-02T13:19:42.592Z,21.23
2018-03-02T13:22:43.269Z,21.20
2018-03-02T13:25:11.613Z,30.33
2018-03-02T13:27:57.688Z,28.63
2018-03-02T13:30:26.768Z,20.10
2018-03-02T13:33:12.822Z,20.00
2018-03-02T13:35:41.182Z,23.10
2018-03-02T13:38:09.558Z,16.27
2018-03-02T13:40:55.664Z,20.70
2018-03-02T13:43:23.980Z,20.63
2018-03-02T13:45:52.322Z,25.00
2018-03-02T13:48:47.440Z,19.93
2018-03-02T13:51:15.760Z,20.73
2018-03-02T13:53:44.101Z,20.80
2018-03-02T13:56:30.034Z,20.10
2018-03-02T13:58:59.136Z,19.53
2018-03-02T14:01:27.480Z,16.60
2018-03-02T14:04:13.614Z,19.53
2018-03-02T14:06:42.721Z,17.90
2018-03-02T14:09:11.050Z,19.17
2018-03-02T14:11:39.429Z,18.40
2018-03-02T14:14:07.749Z,24.97
2018-03-02T14:16:36.823Z,28.87
2018-03-02T14:19:05.148Z,21.63
2018-03-02T14:21:33.534Z,23.33
2018-03-02T14:24:01.877Z,22.53
2018-03-02T14:26:31.479Z,24.30
2018-03-02T14:28:59.853Z,22.97
2018-03-02T14:31:31.411Z,21.73
2018-03-02T14:34:00.505Z,21.60
2018-03-02T14:36:29.585Z,21.93
2018-03-02T14:38:57.927Z,22.47
2018-03-02T14:41:26.265Z,27.23
2018-03-02T14:43:55.373Z,24.13
2018-03-02T14:46:23.778Z,22.50
2018-03-02T14:48:52.342Z,24.50
2018-03-02T14:51:20.728Z,26.67
2018-03-02T14:53:49.065Z,22.97
2018-03-02T14:56:17.397Z,23.70
2018-03-02T14:58:45.728Z,27.37
2018-03-02T15:01:14.063Z,21.07
2018-03-02T15:03:42.375Z,24.03
2018-03-02T15:06:10.688Z,27.27
2018-03-02T15:08:39.112Z,23.73
2018-03-02T15:11:07.409Z,24.30
2018-03-02T15:13:35.710Z,20.37
2018-03-02T15:16:04.064Z,29.70
2018-03-02T15:18:32.388Z,28.43
2018-03-02T15:21:00.698Z,22.00
2018-03-02T15:23:29.030Z,25.37
2018-03-02T15:25:57.351Z,30.83
2018-03-02T15:28:25.680Z,24.67
2018-03-02T15:30:55.303Z,30.47
2018-03-02T15:33:23.629Z,26.43
2018-03-02T15:35:51.963Z,24.27
2018-03-02T15:38:20.303Z,19.17
2018-03-02T15:40:48.689Z,21.98
2018-03-02T15:43:17.049Z,20.70
2018-03-02T15:45:45.404Z,19.00
2018-03-02T15:48:13.749Z,22.77
2018-03-02T15:50:42.213Z,19.67
2018-03-02T15:53:11.471Z,22.27
2018-03-02T15:55:40.576Z,23.33
2018-03-02T15:58:08.952Z,18.77
2018-03-02T16:00:37.333Z,27.58
2018-03-02T16:03:05.650Z,30.08
2018-03-02T16:05:34.762Z,28.67
2018-03-02T16:08:03.897Z,21.08
2018-03-02T16:10:32.237Z,25.55
2018-03-02T16:13:00.576Z,25.88
2018-03-02T16:15:29.108Z,29.92
2018-03-02T16:17:57.410Z,19.35
2018-03-02T16:20:25.704Z,29.05
2018-03-02T16:22:54.062Z,21.50
2018-03-02T16:25:22.396Z,19.00
2018-03-02T16:27:51.482Z,20.27
2018-03-02T16:30:19.825Z,21.20
2018-03-02T16:32:48.173Z,25.92
2018-03-02T16:35:16.516Z,22.73
2018-03-02T16:37:45.310Z,24.98
2018-03-02T16:40:14.457Z,25.67
2018-03-02T16:42:42.856Z,20.58
2018-03-02T16:45:11.199Z,21.42
2018-03-02T16:47:39.533Z,27.02
2018-03-02T16:50:07.868Z,27.17
2018-03-02T16:52:36.318Z,18.85
2018-03-02T16:55:05.448Z,23.10
2018-03-02T16:57:33.889Z,25.15
2018-03-02T17:00:03.666Z,30.60
2018-03-02T17:02:31.999Z,23.45
2018-03-02T17:05:00.322Z,22.20
2018-03-02T17:07:28.664Z,22.98
2018-03-02T17:09:57.007Z,20.27
2018-03-02T17:12:26.425Z,25.50
2018-03-02T17:14:55.553Z,23.23
2018-03-02T17:17:23.885Z,20.98
2018-03-02T17:19:52.278Z,34.85
2018-03-02T17:22:21.447Z,29.75
2018-03-02T17:24:49.833Z,24.50
2018-03-02T17:27:18.195Z,25.23
2018-03-02T17:29:46.533Z,26.92
2018-03-02T17:32:14.873Z,24.00
2018-03-02T17:34:43.234Z,28.75
2018-03-02T17:37:11.590Z,24.67
2018-03-02T17:39:39.906Z,24.23
2018-03-02T17:42:08.242Z,28.17
2018-03-02T17:44:36.639Z,27.83
2018-03-02T17:47:04.983Z,28.70
2018-03-02T17:49:33.325Z,30.25
2018-03-02T17:52:01.687Z,28.48
2018-03-02T17:54:30.768Z,29.37
2018-03-02T17:56:59.098Z,27.50
2018-03-02T17:59:28.225Z,37.78
2018-03-02T18:01:56.558Z,33.67
2018-03-02T18:04:24.865Z,32.45
2018-03-02T18:06:53.769Z,27.52
2018-03-02T18:09:22.097Z,31.83
2018-03-02T18:11:50.436Z,31.62
2018-03-02T18:14:18.900Z,32.35
2018-03-02T18:16:47.224Z,28.25
2018-03-02T18:19:15.557Z,29.17
2018-03-02T18:21:44.693Z,32.45
2018-03-02T18:24:13.018Z,32.63
2018-03-02T18:26:42.101Z,32.22
2018-03-02T18:29:11.418Z,28.23
2018-03-02T18:31:39.785Z,29.70
2018-03-02T18:34:08.235Z,24.15
2018-03-02T18:36:36.644Z,30.10
2018-03-02T18:39:05.748Z,34.90
2018-03-02T18:41:34.977Z,36.47
2018-03-02T18:44:03.327Z,27.83
2018-03-02T18:46:32.423Z,31.23
2018-03-02T18:49:01.565Z,28.42
2018-03-02T18:51:30.005Z,35.63
2018-03-02T18:53:59.066Z,31.25
2018-03-02T18:56:27.394Z,30.85
2018-03-02T18:58:55.726Z,31.25
2018-03-02T19:01:24.042Z,29.25
2018-03-02T19:03:52.360Z,29.17
2018-03-02T19:06:20.701Z,36.08
2018-03-02T19:08:49.053Z,38.47
2018-03-02T19:11:18.131Z,30.23
2018-03-02T19:13:47.234Z,34.20
2018-03-02T19:16:15.611Z,25.65
2018-03-02T19:18:44.735Z,28.00
2018-03-02T19:21:13.853Z,33.90
2018-03-02T19:23:42.196Z,30.23
2018-03-02T19:26:10.532Z,26.62
2018-03-02T19:28:38.914Z,25.00
2018-03-02T19:31:07.286Z,33.30
2018-03-02T19:33:35.635Z,36.03
2018-03-02T19:36:05.029Z,30.88
2018-03-02T19:38:34.102Z,25.83
2018-03-02T19:41:02.424Z,34.45
2018-03-02T19:43:30.778Z,32.60
2018-03-02T19:45:59.907Z,27.00
2018-03-02T19:48:28.276Z,34.38
2018-03-02T19:50:56.641Z,28.58
2018-03-02T19:53:25.748Z,29.55
2018-03-02T19:55:54.104Z,52.08
2018-03-02T19:58:22.746Z,29.20
2018-03-02T20:00:52.637Z,58.92
2018-03-02T20:03:21.029Z,26.60
2018-03-02T20:05:49.489Z,29.35
2018-03-02T20:08:17.954Z,32.72
2018-03-02T20:10:46.280Z,26.08
2018-03-02T20:13:14.648Z,33.97
2018-03-02T20:15:43.053Z,24.25
2018-03-02T20:18:11.371Z,24.12
2018-03-02T20:20:40.759Z,33.60
2018-03-02T20:23:09.089Z,23.70
2018-03-02T20:25:37.427Z,24.95
2018-03-02T20:28:07.077Z,34.33
2018-03-02T20:30:35.426Z,28.58
2018-03-02T20:33:03.774Z,32.50
2018-03-02T20:35:32.449Z,27.23
2018-03-02T20:38:00.878Z,29.20
2018-03-02T20:40:29.210Z,26.50
2018-03-02T20:42:57.818Z,24.02
2018-03-02T20:45:26.945Z,25.73
2018-03-02T20:47:55.300Z,29.00
2018-03-02T20:50:24.402Z,31.42
2018-03-02T20:52:52.734Z,31.27
2018-03-02T20:55:21.064Z,24.63
2018-03-02T20:57:49.432Z,24.73
2018-03-02T21:00:17.756Z,35.70
2018-03-02T21:02:46.115Z,27.50
2018-03-02T21:05:14.570Z,28.08
2018-03-02T21:07:43.677Z,25.98
2018-03-02T21:10:12.018Z,26.73
2018-03-02T21:12:40.403Z,28.67
2018-03-02T21:15:09.044Z,28.95
2018-03-02T21:17:37.365Z,23.30
2018-03-02T21:20:05.748Z,30.42
2018-03-02T21:22:34.121Z,25.42
2018-03-02T21:25:02.446Z,36.20
2018-03-02T21:27:30.869Z,30.55
2018-03-02T21:29:59.957Z,29.60
2018-03-02T21:32:28.281Z,24.65
2018-03-02T21:34:57.454Z,24.17
2018-03-02T21:37:25.761Z,26.50
2018-03-02T21:39:54.150Z,30.23
2018-03-02T21:42:22.485Z,25.62
2018-03-02T21:44:50.850Z,34.67
2018-03-02T21:47:19.158Z,28.95
2018-03-02T21:49:47.668Z,36.35
2018-03-02T21:52:16.052Z,30.08
2018-03-02T21:54:44.349Z,30.02
2018-03-02T21:57:12.727Z,25.75
2018-03-02T21:59:41.031Z,28.38
2018-03-02T22:02:09.363Z,25.12
2018-03-02T22:04:37.778Z,40.53
2018-03-02T22:07:06.090Z,24.85
2018-03-02T22:09:34.480Z,27.85
2018-03-02T22:12:03.745Z,28.48
2018-03-02T22:14:32.083Z,27.70
2018-03-02T22:17:01.217Z,30.17
2018-03-02T22:19:29.598Z,26.30
2018-03-02T22:21:57.955Z,30.30
2018-03-02T22:24:26.389Z,28.55
2018-03-02T22:26:54.777Z,26.75
2018-03-02T22:29:23.157Z,32.85
2018-03-02T22:31:52.256Z,27.08
2018-03-02T22:34:21.422Z,31.98
2018-03-02T22:36:49.762Z,27.35
2018-03-02T22:39:18.103Z,30.55
2018-03-02T22:41:47.215Z,28.52
2018-03-02T22:44:15.557Z,25.20
2018-03-02T22:46:43.907Z,23.80
2018-03-02T22:49:12.263Z,26.23
2018-03-02T22:51:40.610Z,25.88
2018-03-02T22:54:08.969Z,27.70
2018-03-02T22:56:37.430Z,31.80
2018-03-02T22:59:05.756Z,29.73
2018-03-02T23:01:34.880Z,34.25
2018-03-02T23:04:03.252Z,26.48
2018-03-02T23:06:31.592Z,27.92
2018-03-02T23:08:59.921Z,24.55
2018-03-02T23:11:28.280Z,24.50
2018-03-02T23:13:56.649Z,27.98
2018-03-02T23:16:25.762Z,23.92
2018-03-02T23:18:54.988Z,21.83
2018-03-02T23:21:23.327Z,21.80
2018-03-02T23:23:52.434Z,29.70
2018-03-02T23:26:20.787Z,34.35
2018-03-02T23:28:49.140Z,22.52
2018-03-02T23:31:17.467Z,33.65
2018-03-02T23:33:45.816Z,28.45
2018-03-02T23:36:14.141Z,39.33
2018-03-02T23:38:42.462Z,26.70
2018-03-02T23:41:10.876Z,27.83
2018-03-02T23:43:39.981Z,32.67
2018-03-02T23:46:08.322Z,26.75
2018-03-02T23:48:36.692Z,24.63
2018-03-02T23:51:05.022Z,26.83
2018-03-02T23:53:33.345Z,27.37
2018-03-02T23:56:01.690Z,33.47
2018-03-02T23:58:30.016Z,32.03
